createdAt,value
2019-03-12T00:01:36.183Z,8.17
2019-03-12T00:04:05.882Z,6.43
2019-03-12T00:06:35.591Z,6.73
2019-03-12T00:09:06.460Z,8.13
2019-03-12T00:11:37.323Z,4.77
2019-03-12T00:14:07.147Z,6.93
2019-03-12T00:16:37.151Z,11.23
2019-03-12T00:19:06.899Z,10.47
2019-03-12T00:21:36.676Z,7.27
2019-03-12T00:24:06.409Z,9.17
2019-03-12T00:26:36.150Z,10.27
2019-03-12T00:29:06.242Z,3.87
2019-03-12T00:31:36.972Z,7.33
2019-03-12T00:34:06.814Z,5.53
2019-03-12T00:36:36.479Z,5.70
2019-03-12T00:39:06.683Z,6.40
2019-03-12T00:41:37.947Z,5.33
2019-03-12T00:44:07.691Z,7.37
2019-03-12T00:46:37.378Z,8.07
2019-03-12T00:49:07.105Z,8.57
2019-03-12T00:51:36.798Z,4.43
2019-03-12T00:54:06.521Z,7.30
2019-03-12T00:56:36.464Z,6.97
2019-03-12T00:59:06.280Z,6.27
2019-03-12T01:01:35.947Z,7.30
2019-03-12T01:04:05.667Z,4.30
2019-03-12T01:06:35.355Z,5.10
2019-03-12T01:09:08.043Z,4.10
2019-03-12T01:11:37.720Z,7.43
2019-03-12T01:14:07.748Z,6.43
2019-03-12T01:16:37.396Z,6.03
2019-03-12T01:19:07.093Z,7.17
2019-03-12T01:21:36.832Z,7.00
2019-03-12T01:24:06.522Z,5.73
2019-03-12T01:26:36.228Z,7.70
2019-03-12T01:29:05.944Z,9.90
2019-03-12T01:31:35.922Z,5.37
2019-03-12T01:34:05.651Z,4.37
2019-03-12T01:36:35.448Z,4.60
2019-03-12T01:39:06.540Z,7.83
2019-03-12T01:41:37.865Z,5.43
2019-03-12T01:44:07.618Z,11.93
2019-03-12T01:46:37.270Z,6.17
2019-03-12T01:49:07.003Z,8.93
2019-03-12T01:51:36.683Z,6.93
2019-03-12T01:54:06.501Z,6.10
2019-03-12T01:56:37.133Z,5.50
2019-03-12T01:59:06.902Z,11.80
2019-03-12T02:01:36.633Z,10.00
2019-03-12T02:04:06.426Z,4.47
2019-03-12T02:06:36.079Z,8.63
2019-03-12T02:09:08.207Z,6.17
2019-03-12T02:11:38.267Z,7.67
2019-03-12T02:14:28.139Z,8.90
2019-03-12T02:16:58.141Z,11.43
2019-03-12T02:19:28.887Z,7.37
2019-03-12T02:21:58.783Z,9.87
2019-03-12T02:24:28.551Z,10.07
2019-03-12T02:26:58.237Z,6.73
2019-03-12T02:29:27.959Z,5.00
2019-03-12T02:31:57.649Z,6.90
2019-03-12T02:34:27.379Z,5.67
2019-03-12T02:36:57.321Z,7.50
2019-03-12T02:39:27.272Z,7.90
2019-03-12T02:41:56.994Z,6.37
2019-03-12T02:44:26.734Z,5.87
2019-03-12T02:46:56.503Z,4.57
2019-03-12T02:49:26.152Z,7.03
2019-03-12T02:51:55.944Z,8.70
2019-03-12T02:54:25.679Z,6.13
2019-03-12T02:56:55.364Z,6.73
2019-03-12T02:59:25.177Z,4.07
2019-03-12T03:01:55.143Z,7.87
2019-03-12T03:04:24.861Z,6.03
2019-03-12T03:07:16.149Z,7.53
2019-03-12T03:09:46.019Z,10.87
2019-03-12T03:12:15.752Z,6.83
2019-03-12T03:14:45.376Z,9.47
2019-03-12T03:17:16.164Z,4.47
2019-03-12T03:19:45.817Z,6.03
2019-03-12T03:22:16.553Z,7.57
2019-03-12T03:24:46.396Z,9.10
2019-03-12T03:27:16.960Z,6.70
2019-03-12T03:29:46.616Z,6.73
2019-03-12T03:32:16.297Z,10.23
2019-03-12T03:34:45.969Z,8.30
2019-03-12T03:37:15.758Z,8.97
2019-03-12T03:39:45.437Z,8.27
2019-03-12T03:42:16.789Z,11.50
2019-03-12T03:44:47.593Z,7.63
2019-03-12T03:47:19.901Z,7.80
2019-03-12T03:49:48.688Z,6.73
2019-03-12T03:52:18.429Z,9.93
2019-03-12T03:54:48.490Z,14.53
2019-03-12T03:57:18.306Z,10.60
2019-03-12T03:59:48.069Z,11.57
2019-03-12T04:02:17.734Z,9.00
2019-03-12T04:04:47.466Z,10.87
2019-03-12T04:07:17.156Z,6.43
2019-03-12T04:09:46.866Z,9.50
2019-03-12T04:12:16.593Z,7.60
2019-03-12T04:14:46.280Z,9.90
2019-03-12T04:17:16.336Z,12.13
2019-03-12T04:19:46.043Z,11.80
2019-03-12T04:22:15.742Z,13.17
2019-03-12T04:24:45.440Z,6.97
2019-03-12T04:27:15.228Z,8.30
2019-03-12T04:29:45.156Z,14.20
2019-03-12T04:32:14.965Z,11.67
2019-03-12T04:34:44.688Z,17.23
2019-03-12T04:37:14.380Z,9.70
2019-03-12T04:39:44.103Z,6.30
2019-03-12T04:42:13.870Z,4.30
2019-03-12T04:44:43.553Z,10.23
2019-03-12T04:47:13.254Z,5.43
2019-03-12T04:49:42.931Z,9.57
2019-03-12T04:52:12.738Z,10.07
2019-03-12T04:54:42.451Z,10.30
2019-03-12T04:57:12.195Z,13.20
2019-03-12T04:59:41.880Z,9.43
2019-03-12T05:02:11.682Z,14.13
2019-03-12T05:04:41.408Z,12.10
2019-03-12T05:07:11.159Z,14.77
2019-03-12T05:09:40.889Z,10.17
2019-03-12T05:12:10.560Z,13.20
2019-03-12T05:14:43.000Z,13.93
2019-03-12T05:17:17.518Z,12.83
2019-03-12T05:19:47.411Z,17.30
2019-03-12T05:22:18.883Z,13.27
2019-03-12T05:24:48.696Z,10.03
2019-03-12T05:27:18.515Z,18.13
2019-03-12T05:29:48.261Z,21.33
2019-03-12T05:32:17.979Z,15.73
2019-03-12T05:34:47.619Z,13.40
2019-03-12T05:37:17.349Z,11.20
2019-03-12T05:39:47.094Z,18.80
2019-03-12T05:42:16.923Z,14.37
2019-03-12T05:44:46.599Z,16.77
2019-03-12T05:47:16.345Z,16.23
2019-03-12T05:49:46.123Z,17.10
2019-03-12T05:52:15.846Z,17.27
2019-03-12T05:54:45.536Z,16.80
2019-03-12T05:57:15.247Z,19.67
2019-03-12T05:59:44.956Z,17.33
2019-03-12T06:02:14.735Z,17.13
2019-03-12T06:04:44.483Z,16.67
2019-03-12T06:07:14.271Z,19.07
2019-03-12T06:09:44.019Z,22.67
2019-03-12T06:12:13.738Z,22.83
2019-03-12T06:14:43.379Z,19.80
2019-03-12T06:17:13.041Z,26.00
2019-03-12T06:19:42.743Z,25.77
2019-03-12T06:22:12.424Z,22.27
2019-03-12T06:24:42.203Z,26.30
2019-03-12T06:27:11.851Z,30.40
2019-03-12T06:29:41.496Z,37.67
2019-03-12T06:32:18.313Z,35.43
2019-03-12T06:35:10.098Z,38.23
2019-03-12T06:37:59.779Z,64.47
2019-03-12T06:40:48.555Z,42.67
2019-03-12T06:43:22.460Z,39.57
2019-03-12T06:46:13.210Z,61.40
2019-03-12T06:48:46.880Z,60.50
2019-03-12T06:51:29.889Z,144.00
2019-03-12T06:54:08.809Z,77.67
2019-03-12T06:57:00.630Z,48.93
2019-03-12T06:59:39.871Z,36.93
2019-03-12T07:02:19.207Z,40.77
2019-03-12T07:05:07.975Z,27.67
2019-03-12T07:07:53.762Z,31.33
2019-03-12T07:10:30.827Z,27.87
2019-03-12T07:13:19.566Z,31.30
2019-03-12T07:16:02.522Z,34.17
2019-03-12T07:18:49.986Z,30.37
2019-03-12T07:21:38.736Z,30.17
2019-03-12T07:24:20.609Z,32.37
2019-03-12T07:27:08.251Z,35.83
2019-03-12T07:29:52.912Z,34.17
2019-03-12T07:32:30.560Z,35.80
2019-03-12T07:35:23.022Z,29.10
2019-03-12T07:38:10.949Z,27.50
2019-03-12T07:41:06.338Z,31.17
2019-03-12T07:43:56.134Z,30.20
2019-03-12T07:46:43.548Z,24.43
2019-03-12T07:49:30.892Z,23.77
2019-03-12T07:52:22.480Z,25.13
2019-03-12T07:55:08.551Z,29.77
2019-03-12T07:57:49.488Z,30.57
2019-03-12T08:00:24.926Z,27.37
2019-03-12T08:03:01.385Z,28.17
2019-03-12T08:06:02.163Z,24.43
2019-03-12T08:09:03.142Z,22.90
2019-03-12T08:11:41.849Z,26.97
2019-03-12T08:14:26.832Z,25.67
2019-03-12T08:17:03.631Z,26.13
2019-03-12T08:19:55.622Z,20.83
2019-03-12T08:22:40.128Z,23.20
2019-03-12T08:25:22.341Z,20.30
2019-03-12T08:27:58.895Z,20.93
2019-03-12T08:30:47.672Z,28.37
2019-03-12T08:33:27.204Z,18.47
2019-03-12T08:36:06.076Z,20.37
2019-03-12T08:38:54.838Z,19.87
2019-03-12T08:41:36.438Z,19.07
2019-03-12T08:44:14.930Z,27.17
2019-03-12T08:47:15.822Z,24.47
2019-03-12T08:50:03.430Z,23.53
2019-03-12T08:52:53.350Z,24.67
2019-03-12T08:55:29.949Z,26.07
2019-03-12T08:58:24.567Z,19.43
2019-03-12T09:01:10.919Z,15.33
2019-03-12T09:03:58.397Z,21.90
2019-03-12T09:06:47.126Z,17.40
2019-03-12T09:09:35.895Z,14.63
2019-03-12T09:12:39.687Z,17.43
2019-03-12T09:15:29.727Z,18.00
2019-03-12T09:18:18.191Z,17.00
2019-03-12T09:21:14.452Z,12.33
2019-03-12T09:24:03.408Z,19.57
2019-03-12T09:26:51.310Z,18.63
2019-03-12T09:29:52.480Z,16.53
2019-03-12T09:32:27.596Z,14.37
2019-03-12T09:35:19.331Z,16.10
2019-03-12T09:38:05.644Z,15.03
2019-03-12T09:40:42.758Z,20.80
2019-03-12T09:43:22.339Z,18.03
2019-03-12T09:46:09.782Z,16.63
2019-03-12T09:48:54.075Z,14.97
2019-03-12T09:51:32.047Z,16.53
2019-03-12T09:54:19.418Z,15.77
2019-03-12T09:57:26.659Z,14.80
2019-03-12T10:00:16.034Z,21.30
2019-03-12T10:02:48.384Z,15.47
2019-03-12T10:05:53.695Z,14.27
2019-03-12T10:08:35.416Z,15.40
2019-03-12T10:11:21.928Z,15.07
2019-03-12T10:14:09.500Z,22.87
2019-03-12T10:17:07.695Z,17.70
2019-03-12T10:19:49.115Z,12.67
2019-03-12T10:22:33.783Z,16.77
2019-03-12T10:25:15.407Z,10.27
2019-03-12T10:27:55.014Z,13.90
2019-03-12T10:30:56.088Z,17.90
2019-03-12T10:33:45.800Z,11.83
2019-03-12T10:36:33.494Z,14.67
2019-03-12T10:39:46.294Z,17.10
2019-03-12T10:42:24.282Z,10.23
2019-03-12T10:45:04.654Z,16.90
2019-03-12T10:47:35.275Z,18.37
2019-03-12T10:50:05.586Z,10.37
2019-03-12T10:52:35.502Z,12.27
2019-03-12T10:55:12.881Z,8.13
2019-03-12T10:57:37.432Z,10.87
2019-03-12T11:00:07.460Z,14.60
2019-03-12T11:02:40.600Z,15.57
2019-03-12T11:05:09.177Z,8.90
2019-03-12T11:07:39.957Z,11.90
2019-03-12T11:10:10.283Z,9.77
2019-03-12T11:12:39.915Z,11.57
2019-03-12T11:15:10.476Z,7.70
2019-03-12T11:17:49.637Z,13.77
2019-03-12T11:20:12.911Z,8.57
2019-03-12T11:22:42.691Z,8.80
2019-03-12T11:25:12.510Z,12.50
2019-03-12T11:27:42.192Z,9.13
2019-03-12T11:30:13.693Z,8.97
2019-03-12T11:32:43.327Z,15.10
2019-03-12T11:35:13.160Z,8.80
2019-03-12T11:37:43.065Z,10.27
2019-03-12T11:40:15.611Z,11.27
2019-03-12T11:42:45.274Z,19.87
2019-03-12T11:45:18.665Z,12.90
2019-03-12T11:47:46.651Z,8.73
2019-03-12T11:50:18.620Z,11.73
2019-03-12T11:52:54.691Z,15.20
2019-03-12T11:55:20.132Z,13.83
2019-03-12T11:57:49.950Z,13.03
2019-03-12T12:00:27.926Z,12.53
2019-03-12T12:03:00.232Z,11.90
2019-03-12T12:05:29.732Z,7.33
2019-03-12T12:07:59.400Z,9.43
2019-03-12T12:10:29.029Z,10.10
2019-03-12T12:12:58.683Z,11.33
2019-03-12T12:15:28.408Z,9.33
2019-03-12T12:17:58.039Z,10.20
2019-03-12T12:20:30.016Z,12.90
2019-03-12T12:22:59.142Z,12.73
2019-03-12T12:25:28.814Z,17.43
2019-03-12T12:27:58.457Z,14.77
2019-03-12T12:30:28.159Z,11.37
2019-03-12T12:32:57.887Z,9.07
2019-03-12T12:35:27.543Z,13.30
2019-03-12T12:37:57.298Z,9.67
2019-03-12T12:40:27.031Z,11.37
2019-03-12T12:42:56.768Z,13.00
2019-03-12T12:45:26.485Z,14.50
2019-03-12T12:47:56.304Z,14.23
2019-03-12T12:50:26.091Z,13.63
2019-03-12T12:52:55.877Z,11.77
2019-03-12T12:55:25.760Z,10.27
2019-03-12T12:57:55.427Z,14.83
2019-03-12T13:00:25.266Z,11.10
2019-03-12T13:02:55.015Z,17.07
2019-03-12T13:05:24.734Z,16.53
2019-03-12T13:07:54.376Z,10.07
2019-03-12T13:10:24.652Z,12.97
2019-03-12T13:12:54.376Z,14.97
2019-03-12T13:15:24.252Z,15.63
2019-03-12T13:17:53.991Z,12.27
2019-03-12T13:20:23.971Z,17.43
2019-03-12T13:22:53.883Z,13.23
2019-03-12T13:25:23.626Z,19.97
2019-03-12T13:27:53.279Z,11.33
2019-03-12T13:30:23.145Z,13.47
2019-03-12T13:32:52.907Z,12.53
2019-03-12T13:35:22.897Z,12.80
2019-03-12T13:37:52.616Z,11.90
2019-03-12T13:40:22.551Z,14.13
2019-03-12T13:42:52.800Z,13.33
2019-03-12T13:45:22.583Z,14.50
2019-03-12T13:47:52.349Z,8.73
2019-03-12T13:50:22.147Z,10.23
2019-03-12T13:52:52.015Z,11.27
2019-03-12T13:55:21.829Z,15.63
2019-03-12T13:57:51.556Z,15.70
2019-03-12T14:00:21.568Z,13.37
2019-03-12T14:02:51.290Z,12.10
2019-03-12T14:05:21.124Z,13.30
2019-03-12T14:07:50.974Z,12.63
2019-03-12T14:10:21.647Z,13.23
2019-03-12T14:12:52.136Z,12.23
2019-03-12T14:15:25.000Z,14.57
2019-03-12T14:17:54.856Z,17.37
2019-03-12T14:20:41.583Z,11.13
2019-03-12T14:23:12.641Z,12.17
2019-03-12T14:25:42.367Z,10.03
2019-03-12T14:28:12.083Z,10.60
2019-03-12T14:30:41.787Z,8.97
2019-03-12T14:33:11.541Z,7.93
2019-03-12T14:35:50.969Z,8.50
2019-03-12T14:38:13.811Z,8.47
2019-03-12T14:40:43.840Z,10.17
2019-03-12T14:43:13.547Z,7.23
2019-03-12T14:45:49.416Z,9.20
2019-03-12T14:48:38.028Z,8.53
2019-03-12T14:51:13.787Z,6.33
2019-03-12T14:53:43.556Z,6.37
2019-03-12T14:56:13.271Z,6.37
2019-03-12T14:58:42.974Z,5.83
2019-03-12T15:01:12.624Z,7.57
2019-03-12T15:03:42.352Z,4.10
2019-03-12T15:06:12.097Z,10.70
2019-03-12T15:08:41.753Z,5.83
2019-03-12T15:11:11.477Z,11.20
2019-03-12T15:13:41.175Z,6.03
2019-03-12T15:16:11.897Z,5.77
2019-03-12T15:18:41.537Z,6.37
2019-03-12T15:21:11.212Z,6.00
2019-03-12T15:23:40.867Z,6.93
2019-03-12T15:26:10.605Z,11.10
2019-03-12T15:28:40.324Z,9.13
2019-03-12T15:31:09.958Z,9.13
2019-03-12T15:33:39.596Z,6.10
2019-03-12T15:36:09.524Z,16.27
2019-03-12T15:38:39.151Z,9.60
2019-03-12T15:41:08.795Z,10.37
2019-03-12T15:43:38.486Z,8.67
2019-03-12T15:46:08.216Z,9.77
2019-03-12T15:48:37.983Z,11.13
2019-03-12T15:51:07.661Z,13.93
2019-03-12T15:53:37.451Z,5.87
2019-03-12T15:56:07.181Z,8.83
2019-03-12T15:58:36.883Z,13.87
2019-03-12T16:01:06.675Z,10.77
2019-03-12T16:03:36.434Z,13.53
2019-03-12T16:06:06.379Z,14.10
2019-03-12T16:08:36.049Z,7.23
2019-03-12T16:11:05.915Z,9.07
2019-03-12T16:13:35.642Z,15.07
2019-03-12T16:16:05.304Z,11.37
2019-03-12T16:18:34.972Z,11.53
2019-03-12T16:21:05.088Z,10.23
2019-03-12T16:23:34.871Z,11.10
2019-03-12T16:26:04.931Z,13.30
2019-03-12T16:28:34.643Z,16.93
2019-03-12T16:31:05.111Z,7.00
2019-03-12T16:33:34.787Z,11.67
2019-03-12T16:36:05.041Z,11.27
2019-03-12T16:38:34.721Z,9.77
2019-03-12T16:41:05.033Z,10.83
2019-03-12T16:43:34.789Z,13.07
2019-03-12T16:46:05.139Z,13.27
2019-03-12T16:48:34.891Z,13.97
2019-03-12T16:51:05.016Z,11.33
2019-03-12T16:53:34.727Z,10.63
2019-03-12T16:56:05.073Z,13.47
2019-03-12T16:58:34.822Z,8.27
2019-03-12T17:01:05.202Z,12.33
2019-03-12T17:03:34.987Z,14.40
2019-03-12T17:06:05.064Z,9.40
2019-03-12T17:08:34.904Z,11.50
2019-03-12T17:11:05.787Z,10.80
2019-03-12T17:13:35.468Z,14.60
2019-03-12T17:16:05.321Z,13.03
2019-03-12T17:18:35.063Z,5.90
2019-03-12T17:21:04.987Z,10.97
2019-03-12T17:23:34.712Z,9.87
2019-03-12T17:26:05.039Z,10.77
2019-03-12T17:28:34.805Z,9.27
2019-03-12T17:31:05.439Z,7.50
2019-03-12T17:33:35.092Z,7.27
2019-03-12T17:36:04.905Z,11.97
2019-03-12T17:38:45.954Z,6.97
2019-03-12T17:41:05.944Z,10.50
2019-03-12T17:43:36.711Z,11.23
2019-03-12T17:46:07.000Z,10.57
2019-03-12T17:48:36.786Z,9.97
2019-03-12T17:51:06.685Z,10.63
2019-03-12T17:53:36.536Z,10.63
2019-03-12T17:56:07.647Z,6.67
2019-03-12T17:58:37.552Z,7.23
2019-03-12T18:01:07.460Z,10.67
2019-03-12T18:03:37.317Z,14.93
2019-03-12T18:06:07.219Z,9.03
2019-03-12T18:08:36.963Z,8.97
2019-03-12T18:11:06.886Z,8.83
2019-03-12T18:13:36.749Z,9.90
2019-03-12T18:16:06.388Z,12.10
2019-03-12T18:18:36.120Z,10.37
2019-03-12T18:21:05.871Z,8.93
2019-03-12T18:23:35.538Z,9.50
2019-03-12T18:26:07.640Z,10.13
2019-03-12T18:28:37.304Z,8.07
2019-03-12T18:31:06.998Z,8.70
2019-03-12T18:33:36.645Z,11.20
2019-03-12T18:36:06.453Z,7.60
2019-03-12T18:38:36.097Z,8.80
2019-03-12T18:41:05.803Z,13.13
2019-03-12T18:43:35.432Z,6.20
2019-03-12T18:46:05.179Z,5.27
2019-03-12T18:48:34.835Z,6.23
2019-03-12T18:51:05.371Z,13.17
2019-03-12T18:53:35.102Z,11.63
2019-03-12T18:56:06.685Z,10.10
2019-03-12T18:58:36.366Z,5.43
2019-03-12T19:01:11.627Z,6.07
2019-03-12T19:03:41.291Z,8.80
2019-03-12T19:06:11.003Z,9.20
2019-03-12T19:08:42.865Z,8.73
2019-03-12T19:11:12.103Z,9.40
2019-03-12T19:13:43.383Z,7.73
2019-03-12T19:16:13.101Z,7.20
2019-03-12T19:18:43.757Z,7.73
2019-03-12T19:21:13.489Z,6.33
2019-03-12T19:23:43.122Z,7.87
2019-03-12T19:26:13.910Z,8.83
2019-03-12T19:28:43.557Z,11.13
2019-03-12T19:31:30.782Z,8.50
2019-03-12T19:34:05.959Z,9.87
2019-03-12T19:36:35.708Z,7.07
2019-03-12T19:39:07.951Z,7.77
2019-03-12T19:41:38.056Z,5.87
2019-03-12T19:44:07.851Z,14.90
2019-03-12T19:46:37.503Z,9.70
2019-03-12T19:49:07.159Z,10.80
2019-03-12T19:51:36.842Z,7.80
2019-03-12T19:54:06.575Z,8.03
2019-03-12T19:56:36.280Z,7.83
2019-03-12T19:59:05.986Z,11.77
2019-03-12T20:01:36.835Z,12.37
2019-03-12T20:04:06.508Z,9.37
2019-03-12T20:06:36.210Z,8.33
2019-03-12T20:09:08.244Z,11.97
2019-03-12T20:12:23.403Z,7.33
2019-03-12T20:15:24.629Z,6.97
2019-03-12T20:18:22.279Z,8.23
2019-03-12T20:21:34.851Z,8.13
2019-03-12T20:24:40.967Z,11.57
2019-03-12T20:27:40.784Z,5.53
2019-03-12T20:30:47.462Z,6.80
2019-03-12T20:34:04.855Z,4.87
2019-03-12T20:37:27.171Z,7.20
2019-03-12T20:40:27.568Z,5.80
2019-03-12T20:43:43.128Z,6.50
2019-03-12T20:46:52.947Z,9.03
2019-03-12T20:49:46.578Z,7.10
2019-03-12T20:52:59.597Z,8.03
2019-03-12T20:56:05.985Z,10.53
2019-03-12T20:59:20.284Z,6.57
2019-03-12T21:02:25.837Z,5.83
2019-03-12T21:05:51.947Z,3.83
2019-03-12T21:09:01.513Z,5.33
2019-03-12T21:12:19.607Z,6.80
2019-03-12T21:15:16.791Z,6.60
2019-03-12T21:18:53.048Z,9.10
2019-03-12T21:22:10.022Z,10.43
2019-03-12T21:24:47.483Z,8.97
2019-03-12T21:27:26.319Z,5.73
2019-03-12T21:29:54.681Z,15.17
2019-03-12T21:32:24.863Z,4.07
2019-03-12T21:34:54.544Z,8.07
2019-03-12T21:37:24.294Z,5.47
2019-03-12T21:39:56.334Z,8.37
2019-03-12T21:42:25.871Z,8.77
2019-03-12T21:44:55.652Z,7.87
2019-03-12T21:47:25.547Z,6.43
2019-03-12T21:49:55.271Z,6.53
2019-03-12T21:52:25.067Z,6.83
2019-03-12T21:54:54.808Z,4.70
2019-03-12T21:57:24.523Z,7.33
2019-03-12T21:59:54.197Z,8.07
2019-03-12T22:02:23.935Z,5.30
2019-03-12T22:04:53.615Z,4.97
2019-03-12T22:07:23.512Z,7.73
2019-03-12T22:09:53.231Z,6.07
2019-03-12T22:12:23.007Z,8.20
2019-03-12T22:14:52.665Z,5.93
2019-03-12T22:17:22.412Z,7.93
2019-03-12T22:19:52.080Z,7.77
2019-03-12T22:22:30.067Z,6.77
2019-03-12T22:24:59.798Z,7.60
2019-03-12T22:27:29.527Z,7.87
2019-03-12T22:29:59.288Z,6.67
2019-03-12T22:32:28.957Z,7.07
2019-03-12T22:34:58.728Z,11.03
2019-03-12T22:37:28.652Z,5.97
2019-03-12T22:39:58.271Z,8.73
2019-03-12T22:42:27.978Z,9.17
2019-03-12T22:44:57.779Z,8.00
2019-03-12T22:47:27.503Z,5.20
2019-03-12T22:49:57.253Z,6.47
2019-03-12T22:52:26.924Z,7.67
2019-03-12T22:54:56.698Z,7.93
2019-03-12T22:57:26.464Z,10.30
2019-03-12T23:00:14.595Z,7.13
2019-03-12T23:03:02.497Z,9.10
2019-03-12T23:05:50.075Z,11.33
2019-03-12T23:08:37.292Z,10.60
2019-03-12T23:11:08.699Z,7.07
2019-03-12T23:13:39.327Z,9.07
2019-03-12T23:16:09.330Z,5.87
2019-03-12T23:18:39.216Z,8.80
2019-03-12T23:21:08.961Z,9.67
2019-03-12T23:23:39.128Z,8.13
2019-03-12T23:26:08.818Z,4.33
2019-03-12T23:28:38.610Z,6.73
2019-03-12T23:31:08.261Z,7.23
2019-03-12T23:33:38.020Z,6.83
2019-03-12T23:36:07.756Z,6.30
2019-03-12T23:38:37.543Z,4.00
2019-03-12T23:41:07.179Z,10.13
2019-03-12T23:43:37.006Z,5.10
2019-03-12T23:46:06.891Z,9.67
2019-03-12T23:48:36.664Z,6.23
2019-03-12T23:51:06.526Z,9.20
2019-03-12T23:53:36.370Z,8.97
2019-03-12T23:56:06.263Z,7.73
2019-03-12T23:58:36.144Z,8.40
